Thunder radar more information blitzortung!


Löydät sääaseman tiedot myös:

European Weather Network

Finland Weather Exchange

Weather Underground

AWEKAS



Weather Underground säähistoriasivu

Päivittäin yhteenveto Helmikuu 26, 2017 Yksiköt:  Englantilaiset    Metriset   Molemmat
« Edellinen Päivä
Seuraava Päivä »
Päivittäin Viikoittain Kuukausittain Vuosittain Mukautettu
  Korkea: Matala: Keskiarvo:
Lämpötila: TemperatureC °F -13.9 °F -9.5 °F
Kastepiste: DewpointC °F -15.3 °F -11 °F
Kosteus: Humidity % 76 % 88 %
Tuulen nopeus: WindSpeedKMH mph 0.0 mph 0.1 mph
Tuulenpuuska: WindSpeedGustKMH mph - -
Tuuli:- - West
Ilmanpaine: PressurehPa in 994.5 in -
Sade: 0.0 in    
Historical Graphs
 
 
Taulukkotiedot Helmikuu 26, 2017
Aika Lämpötila Kastepiste Ilmanpaine Tuuli Tuulen nopeus Tuulenpuuska Kosteus Sademäärä (tunneittain)
TemperatureC °F DewpointC °F PressurehPa in Calm     Humidity % HourlyPrecipMM in
00:00 -9.9 °F -11.0 °F 996.2 in Calm     92 % 0.0 in
00:15 -10.3 °F -11.5 °F 996.2 in Calm     91 % 0.0 in
00:30 -10.4 °F -11.6 °F 996.2 in Calm     91 % 0.0 in
00:45 -10.9 °F -12.1 °F 995.8 in Calm   3.2 mph 91 % 0.0 in
01:00 -10.8 °F -11.8 °F 995.8 in Calm     92 % 0.0 in
01:15 -11.1 °F -12.2 °F 996.2 in Calm     91 % 0.0 in
01:30 -11.6 °F -12.7 °F 995.8 in Calm     91 % 0.0 in
01:45 -11.7 °F -12.8 °F 995.8 in Calm     91 % 0.0 in
02:00 -11.9 °F -13.3 °F 995.8 in Calm     90 % 0.0 in
02:15 -12.2 °F -13.5 °F 995.8 in Calm     90 % 0.0 in
02:30 -12.3 °F -13.6 °F 995.8 in Calm     90 % 0.0 in
02:45 -12.6 °F -13.9 °F 995.5 in Calm     90 % 0.0 in
03:00 -12.7 °F -13.8 °F 995.5 in WSW 1.6 mph 3.2 mph 91 % 0.0 in
03:15 -12.8 °F -14.1 °F 995.5 in Calm     90 % 0.0 in
03:30 -13.1 °F -14.5 °F 995.5 in Calm     89 % 0.0 in
03:45 -13.3 °F -14.8 °F 995.5 in Calm     89 % 0.0 in
04:00 -13.6 °F -15.0 °F 995.5 in Calm     89 % 0.0 in
04:15 -13.7 °F -15.1 °F 995.5 in Calm     89 % 0.0 in
04:30 -13.8 °F -15.2 °F 995.5 in Calm     89 % 0.0 in
04:45 -13.9 °F -15.3 °F 995.1 in Calm   3.2 mph 89 % 0.0 in
05:00 -13.7 °F -15.0 °F 995.1 in Calm   3.2 mph 90 % 0.0 in
05:15 -13.6 °F -14.9 °F 995.1 in Calm     90 % 0.0 in
05:30 -13.7 °F -15.1 °F 995.1 in Calm     89 % 0.0 in
05:45 -13.3 °F -14.5 °F 995.1 in Calm     91 % 0.0 in
06:00 -12.8 °F -14.0 °F 994.8 in Calm     91 % 0.0 in
06:15 -12.5 °F -13.7 °F 994.8 in Calm     91 % 0.0 in
06:30 -12.2 °F -13.4 °F 994.8 in Calm     91 % 0.0 in
06:45 -12.0 °F -13.2 °F 994.8 in Calm     91 % 0.0 in
07:00 -11.9 °F -13.1 °F 994.5 in Calm     91 % 0.0 in
07:15 -11.8 °F -13.0 °F 994.5 in Calm     91 % 0.0 in
07:30 -12.0 °F -13.3 °F 994.8 in Calm     90 % 0.0 in
07:45 -12.2 °F -13.5 °F 994.8 in Calm     90 % 0.0 in
08:00 -12.4 °F -13.7 °F 994.8 in Calm     90 % 0.0 in
08:15 -12.7 °F -14.0 °F 994.8 in Calm     90 % 0.0 in
08:30 -12.9 °F -14.3 °F 994.5 in Calm     89 % 0.0 in
08:45 -12.8 °F -14.1 °F 994.5 in Calm     90 % 0.0 in
09:00 -12.4 °F -13.6 °F 994.8 in Calm     91 % 0.0 in
09:15 -11.8 °F -12.9 °F 994.8 in Calm     92 % 0.0 in
09:30 -11.3 °F -12.4 °F 994.8 in Calm     92 % 0.0 in
09:45 -10.7 °F -11.8 °F 994.8 in Calm     92 % 0.0 in
10:00 -10.4 °F -11.4 °F 994.8 in Calm     92 % 0.0 in
10:15 -10.6 °F -12.1 °F 994.8 in Calm     89 % 0.0 in
10:30 -10.9 °F -12.4 °F 995.1 in Calm     89 % 0.0 in
10:45 -10.7 °F -11.9 °F 995.1 in Calm   1.6 mph 91 % 0.0 in
11:00 -10.2 °F -11.4 °F 995.1 in Calm     91 % 0.0 in
11:15 -9.6 °F -10.8 °F 995.1 in Calm     91 % 0.0 in
11:30 -9.1 °F -10.3 °F 995.1 in Calm     91 % 0.0 in
11:45 -8.8 °F -10.2 °F 995.1 in Calm     90 % 0.0 in
12:00 -8.6 °F -10.0 °F 995.1 in Calm     90 % 0.0 in
12:15 -8.1 °F -9.3 °F 995.5 in Calm     91 % 0.0 in
12:30 -7.3 °F -8.6 °F 995.5 in Calm     91 % 0.0 in
12:45 -6.6 °F -8.0 °F 995.5 in Calm     90 % 0.0 in
13:00 -6.3 °F -7.8 °F 995.5 in Calm   3.2 mph 89 % 0.0 in
13:15 -6.2 °F -7.7 °F 995.8 in Calm     89 % 0.0 in
13:30 -5.8 °F -7.4 °F 995.8 in Calm     89 % 0.0 in
13:45 -5.6 °F -6.9 °F 995.8 in Calm     90 % 0.0 in
14:00 -4.9 °F -6.4 °F 996.2 in Calm   3.2 mph 89 % 0.0 in
14:15 -4.9 °F -6.6 °F 996.2 in Calm     88 % 0.0 in
14:30 -4.8 °F -6.4 °F 996.2 in Calm   3.2 mph 89 % 0.0 in
14:45 -4.6 °F -6.3 °F 996.2 in Calm   3.2 mph 88 % 0.0 in
15:00 -4.4 °F -6.3 °F 996.5 in Calm   1.6 mph 87 % 0.0 in
15:15 -4.1 °F -6.1 °F 996.5 in Calm     86 % 0.0 in
15:30 -3.1 °F -5.9 °F 996.5 in Calm     81 % 0.0 in
15:45 -2.6 °F -5.7 °F 996.5 in Calm     79 % 0.0 in
16:00 -2.5 °F -6.2 °F 996.5 in Calm     76 % 0.0 in
16:15 -3.1 °F -6.6 °F 996.5 in Calm     77 % 0.0 in
16:30 -4.2 °F -7.2 °F 996.5 in Calm     80 % 0.0 in
16:45 -5.1 °F -7.2 °F 996.8 in Calm   4.8 mph 85 % 0.0 in
17:00 -5.2 °F -7.0 °F 996.8 in Calm     87 % 0.0 in
17:15 -5.3 °F -7.0 °F 996.8 in Calm     88 % 0.0 in
17:30 -5.4 °F -7.1 °F 996.8 in Calm     88 % 0.0 in
17:45 -5.3 °F -6.8 °F 996.8 in Calm     89 % 0.0 in
18:00 -5.1 °F -6.7 °F 996.8 in WSW 1.6 mph 6.4 mph 88 % 0.0 in
18:15 -5.1 °F -6.7 °F 997.2 in Calm   4.8 mph 88 % 0.0 in
18:30 -5.1 °F -6.8 °F 997.2 in Calm   3.2 mph 88 % 0.0 in
18:45 -5.4 °F -7.2 °F 997.2 in West 1.6 mph 6.4 mph 87 % 0.0 in
19:00 -5.8 °F -7.6 °F 997.5 in West 1.6 mph 9.7 mph 87 % 0.0 in
19:15 -6.3 °F -8.3 °F 997.9 in WNW 1.6 mph 6.4 mph 86 % 0.0 in
19:30 -7.1 °F -9.2 °F 997.9 in WNW 1.6 mph 4.8 mph 85 % 0.0 in
19:45 -7.9 °F -10.0 °F 998.2 in Calm   4.8 mph 85 % 0.0 in
20:00 -8.4 °F -10.4 °F 998.5 in Calm   4.8 mph 86 % 0.0 in
20:15 -8.9 °F -10.9 °F 998.5 in Calm   3.2 mph 86 % 0.0 in
20:30 -9.4 °F -11.2 °F 998.5 in Calm   1.6 mph 87 % 0.0 in
20:45 -9.8 °F -11.4 °F 998.9 in Calm   1.6 mph 88 % 0.0 in
21:00 -10.2 °F -11.8 °F 998.9 in Calm   1.6 mph 88 % 0.0 in
21:15 -10.6 °F -12.0 °F 998.9 in Calm     89 % 0.0 in
21:30 -10.9 °F -12.3 °F 998.9 in Calm     89 % 0.0 in
21:45 -11.4 °F -12.9 °F 998.9 in Calm     89 % 0.0 in
22:00 -11.8 °F -13.1 °F 999.2 in Calm     90 % 0.0 in
22:15 -11.9 °F -13.3 °F 999.2 in Calm     90 % 0.0 in
22:30 -12.3 °F -13.6 °F 999.2 in Calm     90 % 0.0 in
22:45 -12.7 °F -14.0 °F 999.2 in Calm     90 % 0.0 in
23:00 -13.0 °F -14.3 °F 999.5 in Calm     90 % 0.0 in
23:15 -13.3 °F -14.6 °F 999.5 in Calm     90 % 0.0 in
23:30 -13.7 °F -15.1 °F 999.5 in Calm     89 % 0.0 in
23:45 -13.8 °F -15.1 °F 999.9 in Calm     90 % 0.0 in
Esan sääasema
Terveisin Weather Underground - 2.75 mb

Alkuperäinen skripti  Jim McMurry - jmcmurry@mwt.net Sovitettu myös templatelle  Wim van der Kuil - Leuven-Template.eu

Laitteet joita käytämme:

Sääasema
Davis VP2

Sääasemaohjelma
Cumulus

Sääaseman tietokone
Asus EeePC

Palveluntarjoaja
Suncomet

Davis VP2

Cumulus

Asus EeePC

Suncomet